Terminal Aerodrome Forecast
Issued by NWS Sioux Falls, SD

Home | Current Version | Previous Version | Graphics & Text | Print | Product List | Glossary Off
Versions: 1 2 3 4 5 6 7 8 9 10 11 12 13 14 15 16 17 18 19 20 21 22 23 24 25 26 27 28

000
FTUS43 KFSD 201400 AAA
TAFFSD
TAF AMD
KFSD 201401Z 2014/2112 17010KT P6SM FEW250
     FM201430 18013KT P6SM BKN015
     FM201800 18015G22KT P6SM SCT020
     FM210100 17009KT P6SM FEW020
     FM210900 15006KT 6SM BR FEW030=

USA.gov is the U.S. government's official web portal to all federal, state and local government web resources and services.